Time;durP1;ratioP1;P1;durP2;ratioP2;P2;SDS_P1;SDS_P2;PMS_P1;PMS_P2;Temp;Humidity;BMP_temperature;BMP_pressure;BME280_temperature;BME280_humidity;BME280_pressure;Samples;Min_cycle;Max_cycle;Signal;HPM_P1;HPM_P2
2022/08/26 00:06:20;;;;;;;3.92;1.85;;;26.10;43.10;;;;;;20993534;28;20352;-57
2022/08/26 00:16:22;;;;;;;3.37;1.60;;;;;;;;;;21001038;28;20049;-54
2022/08/26 00:26:24;;;;;;;3.80;1.88;;;;;;;;;;21007698;28;20072;-54
2022/08/26 00:36:26;;;;;;;;;;;;;;;;;;21007289;28;20048;-55
2022/08/26 00:46:36;;;;;;;5.73;2.40;;;;;;;;;;21006166;28;20009;-57
2022/08/26 00:56:46;;;;;;;4.40;1.90;;;;;;;;;;21006744;28;20065;-58
2022/08/26 01:06:48;;;;;;;6.38;1.73;;;;;;;;;;21004897;28;20056;-57
2022/08/26 01:16:51;;;;;;;4.85;1.88;;;;;;;;;;21003631;28;20084;-58
2022/08/26 01:26:55;;;;;;;3.88;2.08;;;;;;;;;;21004409;28;20049;-57
2022/08/26 01:37:12;;;;;;;4.88;2.13;;;;;;;;;;21002366;28;20048;-56
2022/08/26 01:47:16;;;;;;;3.28;2.15;;;25.00;49.40;;;;;;21002271;28;20163;-58
2022/08/26 01:57:20;;;;;;;4.03;2.55;;;24.80;50.50;;;;;;21001835;28;20048;-58
2022/08/26 02:07:23;;;;;;;6.03;2.42;;;24.70;51.50;;;;;;21000535;28;20056;-57
2022/08/26 02:17:32;;;;;;;3.47;2.22;;;24.60;52.20;;;;;;20999543;28;20050;-57
2022/08/26 02:27:36;;;;;;;4.82;2.58;;;24.50;52.90;;;;;;20998482;28;20127;-56
2022/08/26 02:37:40;;;;;;;5.00;2.58;;;24.40;53.50;;;;;;20997135;28;20064;-56
2022/08/26 02:47:43;;;;;;;4.90;2.40;;;24.20;54.00;;;;;;20996552;28;20413;-56
2022/08/26 02:57:46;;;;;;;5.53;2.30;;;24.20;54.30;;;;;;20997078;28;20048;-57
2022/08/26 03:07:48;;;;;;;;;;;24.20;54.20;;;;;;20997506;28;20495;-57
2022/08/26 03:17:50;;;;;;;5.68;2.90;;;23.90;54.90;;;;;;20995338;28;19921;-57
2022/08/26 03:27:52;;;;;;;6.00;2.50;;;23.80;55.30;;;;;;20995738;28;20060;-57
2022/08/26 03:37:54;;;;;;;5.68;2.25;;;23.70;55.60;;;;;;20995703;28;20056;-57
2022/08/26 03:47:57;;;;;;;5.70;2.88;;;23.70;55.90;;;;;;20997476;28;20102;-57
2022/08/26 03:57:59;;;;;;;;;;;;;;;;;;21010589;28;20041;-57
2022/08/26 04:08:02;;;;;;;3.57;2.70;;;;;;;;;;21010685;28;20326;-57
2022/08/26 04:18:04;;;;;;;4.80;2.58;;;;;;;;;;21008828;28;20048;-56
2022/08/26 04:28:07;;;;;;;4.63;2.65;;;;;;;;;;21007508;28;20131;-56
2022/08/26 04:38:11;;;;;;;5.63;2.72;;;;;;;;;;21007512;28;20060;-57
2022/08/26 04:48:14;;;;;;;7.45;3.00;;;23.40;57.00;;;;;;21001208;28;20044;-57
2022/08/26 04:58:19;;;;;;;4.00;2.72;;;23.30;57.30;;;;;;21001373;28;20480;-58
2022/08/26 05:08:22;;;;;;;6.28;2.97;;;23.30;57.60;;;;;;20999926;28;20044;-57
2022/08/26 05:18:26;;;;;;;4.60;2.63;;;23.20;57.90;;;;;;21000409;28;20057;-56
2022/08/26 05:28:29;;;;;;;6.57;2.80;;;23.20;57.80;;;;;;20999555;28;20053;-56
2022/08/26 05:38:30;;;;;;;4.63;2.67;;;23.20;57.70;;;;;;20956784;28;1190027;-56
2022/08/26 05:48:32;;;;;;;2.77;2.03;;;23.20;57.60;;;;;;21002209;28;20045;-57
2022/08/26 05:58:36;;;;;;;5.17;2.30;;;23.20;57.70;;;;;;21000791;28;20056;-57
2022/08/26 06:08:39;;;;;;;3.72;2.33;;;23.30;57.30;;;;;;20999672;28;20125;-58
2022/08/26 06:18:43;;;;;;;5.32;2.53;;;23.20;57.60;;;;;;20999199;28;20499;-57
2022/08/26 06:28:45;;;;;;;3.63;2.53;;;23.20;57.60;;;;;;20998581;28;20051;-57
2022/08/26 06:38:47;;;;;;;4.72;2.42;;;23.20;57.30;;;;;;20997590;28;20056;-57
2022/08/26 06:48:49;;;;;;;5.45;2.40;;;23.30;57.00;;;;;;20996359;28;20397;-57
2022/08/26 06:58:51;;;;;;;5.33;2.83;;;23.30;56.90;;;;;;20996003;28;20049;-57
2022/08/26 07:09:00;;;;;;;5.43;2.40;;;23.40;56.90;;;;;;20995558;28;20049;-56
2022/08/26 07:19:04;;;;;;;3.85;2.40;;;23.40;56.90;;;;;;20994885;28;20059;-57
2022/08/26 07:29:05;;;;;;;5.22;2.75;;;23.60;56.30;;;;;;20994005;28;20080;-57
2022/08/26 07:39:07;;;;;;;5.23;2.60;;;23.70;55.90;;;;;;20993569;28;20052;-57
2022/08/26 07:49:09;;;;;;;3.80;2.50;;;23.80;55.60;;;;;;20994525;28;20404;-58
2022/08/26 07:59:12;;;;;;;4.90;2.33;;;24.00;54.80;;;;;;20993473;28;20048;-57
2022/08/26 08:09:14;;;;;;;4.70;2.38;;;24.50;53.60;;;;;;20993719;28;20058;-57
2022/08/26 08:19:17;;;;;;;3.90;2.50;;;24.70;52.80;;;;;;20992321;28;20080;-56
2022/08/26 08:29:19;;;;;;;9.25;2.38;;;24.90;52.40;;;;;;20992967;28;20045;-58
2022/08/26 08:39:21;;;;;;;4.68;2.03;;;25.10;51.20;;;;;;21003886;28;20080;-57
2022/08/26 08:49:24;;;;;;;4.07;2.13;;;25.20;51.00;;;;;;21006269;28;20045;-58
2022/08/26 08:59:32;;;;;;;6.38;2.50;;;25.60;48.90;;;;;;21005736;28;20145;-57
2022/08/26 09:09:47;;;;;;;9.20;2.83;;;25.80;49.40;;;;;;21004622;28;20056;-60
2022/08/26 09:19:53;;;;;;;9.23;2.63;;;26.10;47.80;;;;;;21003807;28;20041;-56
2022/08/26 09:29:58;;;;;;;4.20;2.08;;;26.30;47.60;;;;;;21003680;28;20408;-56
2022/08/26 09:40:18;;;;;;;6.55;2.05;;;26.50;47.10;;;;;;21003513;28;20080;-57
2022/08/26 09:50:25;;;;;;;6.05;2.03;;;26.90;45.30;;;;;;21000990;28;20060;-58
2022/08/26 10:00:40;;;;;;;3.10;1.80;;;27.10;44.80;;;;;;21001488;28;20041;-58
2022/08/26 10:10:44;;;;;;;5.88;1.90;;;27.20;44.70;;;;;;21000008;28;20048;-57
2022/08/26 10:20:54;;;;;;;4.00;1.83;;;27.40;44.00;;;;;;20998894;28;20059;-55
2022/08/26 10:31:05;;;;;;;7.78;2.00;;;28.00;42.90;;;;;;20997359;28;20059;-56
2022/08/26 10:41:14;;;;;;;5.05;1.58;;;28.30;42.10;;;;;;20997704;28;20048;-59
2022/08/26 10:51:35;;;;;;;4.63;1.85;;;28.50;42.20;;;;;;20996739;28;20052;-59
2022/08/26 11:01:48;;;;;;;4.87;1.97;;;28.50;41.80;;;;;;20995713;28;20189;-60
2022/08/26 11:11:49;;;;;;;5.03;1.80;;;28.70;41.50;;;;;;20995149;28;20057;-60
2022/08/26 11:22:08;;;;;;;4.63;2.00;;;28.90;40.90;;;;;;20995363;28;20503;-59
2022/08/26 11:32:32;;;;;;;3.28;1.52;;;29.10;40.40;;;;;;20992916;28;20071;-58
2022/08/26 11:42:37;;;;;;;4.43;2.30;;;29.30;39.80;;;;;;20993832;28;20048;-58
2022/08/26 11:52:38;;;;;;;3.65;1.80;;;29.30;39.60;;;;;;20995000;28;20075;-58
2022/08/26 12:02:40;;;;;;;4.00;1.98;;;29.50;39.40;;;;;;20994064;28;20047;-59
2022/08/26 12:12:41;;;;;;;7.82;2.42;;;29.80;38.50;;;;;;21002111;28;20490;-57
2022/08/26 12:22:44;;;;;;;2.97;1.83;;;30.10;38.00;;;;;;21008283;28;20045;-60
2022/08/26 12:33:01;;;;;;;5.13;2.08;;;30.20;37.40;;;;;;21006842;28;20130;-56
2022/08/26 12:43:05;;;;;;;5.35;2.08;;;30.60;36.40;;;;;;21006410;28;20040;-58
2022/08/26 12:53:09;;;;;;;7.45;2.28;;;30.80;36.60;;;;;;21005543;28;20052;-59
2022/08/26 13:03:47;;;;;;;4.82;2.45;;;31.00;35.20;;;;;;21005634;28;20060;-58
2022/08/26 13:13:50;;;;;;;3.97;1.95;;;31.30;33.90;;;;;;20830239;28;20053;-58
2022/08/26 13:23:53;;;;;;;5.60;2.00;;;31.50;33.50;;;;;;20828714;28;20096;-58
2022/08/26 13:33:56;;;;;;;5.78;1.98;;;31.80;32.20;;;;;;20828117;28;20111;-58
2022/08/26 13:43:58;;;;;;;3.03;1.95;;;32.10;32.80;;;;;;20914800;28;20056;-61
2022/08/26 13:54:00;;;;;;;6.13;1.77;;;32.10;31.70;;;;;;21001073;28;20059;-58
2022/08/26 14:04:02;;;;;;;6.18;2.17;;;32.10;31.40;;;;;;21000712;28;20044;-57
2022/08/26 14:14:04;;;;;;;3.97;2.20;;;32.10;31.10;;;;;;20999590;28;20056;-57
2022/08/26 14:24:05;;;;;;;5.47;2.38;;;32.10;31.10;;;;;;20998864;28;20477;-58
2022/08/26 14:34:07;;;;;;;6.90;2.20;;;32.10;31.00;;;;;;20997584;28;20087;-56
2022/08/26 14:44:12;;;;;;;8.43;2.70;;;32.10;30.70;;;;;;20997119;28;20040;-56
2022/08/26 14:54:15;;;;;;;6.70;2.67;;;32.10;30.60;;;;;;20996028;28;20067;-56
2022/08/26 15:04:17;;;;;;;5.88;2.50;;;32.10;30.30;;;;;;20995395;28;20480;-57
2022/08/26 15:14:20;;;;;;;5.50;2.65;;;31.90;30.10;;;;;;20994863;28;20257;-57
2022/08/26 15:24:24;;;;;;;6.50;2.25;;;31.90;30.10;;;;;;20995367;28;20044;-58
2022/08/26 15:34:26;;;;;;;6.63;2.40;;;31.90;30.20;;;;;;20993768;28;20056;-55
2022/08/26 15:44:28;;;;;;;4.43;2.10;;;31.80;30.80;;;;;;21000139;28;20106;-56
2022/08/26 15:54:31;;;;;;;4.88;2.10;;;31.70;31.10;;;;;;21009978;28;20471;-57
2022/08/26 16:04:32;;;;;;;6.78;2.40;;;31.70;31.50;;;;;;21009464;28;20123;-58
2022/08/26 16:14:34;;;;;;;5.78;2.42;;;31.70;30.90;;;;;;21008733;28;20094;-58
2022/08/26 16:24:36;;;;;;;5.55;2.53;;;31.70;31.20;;;;;;21008084;28;20102;-58
2022/08/26 16:34:37;;;;;;;5.45;2.08;;;31.60;31.20;;;;;;21007998;28;20049;-58
2022/08/26 16:44:45;;;;;;;5.03;2.72;;;31.60;31.00;;;;;;21006370;28;20052;-58
2022/08/26 16:54:46;;;;;;;4.57;2.53;;;31.60;31.00;;;;;;21005128;28;20102;-56
2022/08/26 17:04:49;;;;;;;11.25;3.00;;;31.60;31.20;;;;;;21004964;28;20459;-56
2022/08/26 17:14:51;;;;;;;6.72;3.20;;;31.60;31.10;;;;;;21004392;28;20135;-56
2022/08/26 17:24:53;;;;;;;5.68;2.90;;;31.60;31.30;;;;;;21002603;28;20051;-55
2022/08/26 17:34:54;;;;;;;5.65;2.55;;;31.50;31.50;;;;;;21002475;28;20048;-57
2022/08/26 17:44:56;;;;;;;7.35;2.45;;;31.30;31.80;;;;;;21002056;28;20453;-57
2022/08/26 17:54:58;;;;;;;7.60;2.65;;;31.20;31.70;;;;;;21000699;28;20048;-58
2022/08/26 18:05:01;;;;;;;6.88;3.03;;;31.10;31.70;;;;;;20998618;28;20102;-58
2022/08/26 18:15:03;;;;;;;5.68;2.40;;;30.90;31.80;;;;;;20999240;28;20174;-58
2022/08/26 18:25:07;;;;;;;8.70;3.08;;;30.80;31.90;;;;;;20998033;28;20066;-58
2022/08/26 18:35:10;;;;;;;6.97;2.80;;;30.70;32.10;;;;;;20997214;28;20096;-56
2022/08/26 18:45:12;;;;;;;6.03;3.20;;;30.60;32.40;;;;;;20997190;28;20077;-57
2022/08/26 18:55:13;;;;;;;4.30;3.17;;;30.50;32.80;;;;;;20997236;28;20138;-57
2022/08/26 19:05:16;;;;;;;7.25;2.58;;;30.50;33.20;;;;;;20995593;28;20114;-57
2022/08/26 19:15:17;;;;;;;5.88;2.17;;;30.40;34.90;;;;;;20994872;28;20052;-58
2022/08/26 19:25:19;;;;;;;5.68;2.97;;;30.20;34.70;;;;;;20994036;28;20040;-57
2022/08/26 19:35:21;;;;;;;6.10;2.63;;;30.00;35.00;;;;;;20993808;28;20110;-57
2022/08/26 19:45:23;;;;;;;7.43;3.70;;;29.90;35.40;;;;;;20992110;28;20049;-57
2022/08/26 19:55:25;;;;;;;5.55;2.95;;;29.70;35.60;;;;;;20993549;28;20049;-57
2022/08/26 20:05:26;;;;;;;5.78;3.00;;;29.60;35.60;;;;;;20993556;28;20044;-57
2022/08/26 20:15:28;;;;;;;5.55;2.80;;;29.40;34.60;;;;;;20992377;28;20055;-58
2022/08/26 20:25:31;;;;;;;10.10;3.42;;;29.30;34.50;;;;;;20992399;28;20049;-56
2022/08/26 20:35:33;;;;;;;14.00;3.58;;;29.20;35.70;;;;;;21004385;28;20052;-57
2022/08/26 20:45:35;;;;;;;8.65;3.63;;;28.70;38.60;;;;;;21007037;28;20053;-56
2022/08/26 20:55:36;;;;;;;7.32;3.70;;;28.40;41.00;;;;;;21006719;28;20060;-57
2022/08/26 21:05:38;;;;;;;6.93;3.33;;;27.90;42.60;;;;;;21006496;28;20049;-57
2022/08/26 21:15:40;;;;;;;10.82;3.00;;;27.60;43.20;;;;;;21004835;28;20131;-57
2022/08/26 21:25:43;;;;;;;5.72;3.10;;;27.50;43.90;;;;;;21004776;28;20052;-58
2022/08/26 21:35:54;;;;;;;10.10;3.45;;;27.20;44.80;;;;;;21004239;28;20503;-58
2022/08/26 21:46:15;;;;;;;8.07;3.03;;;27.10;45.50;;;;;;21002025;28;20052;-57
2022/08/26 21:56:18;;;;;;;7.10;3.30;;;27.00;45.90;;;;;;21001667;28;20052;-58
2022/08/26 22:06:23;;;;;;;8.07;4.10;;;26.80;46.30;;;;;;21000721;28;20041;-58
2022/08/26 22:16:27;;;;;;;4.90;3.00;;;26.60;46.70;;;;;;20999877;28;20052;-56
2022/08/26 22:26:31;;;;;;;7.05;3.33;;;26.60;46.90;;;;;;20999438;28;20073;-60
2022/08/26 22:36:32;;;;;;;6.28;3.10;;;26.40;47.10;;;;;;20998400;28;20048;-59
2022/08/26 22:46:35;;;;;;;7.80;3.30;;;26.40;47.00;;;;;;20997448;28;20044;-59
2022/08/26 22:56:41;;;;;;;5.53;3.17;;;26.50;47.20;;;;;;20995626;28;20051;-58
2022/08/26 23:06:43;;;;;;;6.63;3.60;;;26.40;47.40;;;;;;20994905;28;20071;-56
2022/08/26 23:16:46;;;;;;;6.20;3.33;;;26.30;47.70;;;;;;20995904;28;20052;-58
2022/08/26 23:26:48;;;;;;;5.10;3.33;;;26.20;48.40;;;;;;20995229;28;20326;-58
2022/08/26 23:36:49;;;;;;;8.57;3.60;;;26.10;48.30;;;;;;20995312;28;20109;-58
2022/08/26 23:46:51;;;;;;;6.03;2.97;;;26.00;48.60;;;;;;20994934;28;20149;-57
2022/08/26 23:56:53;;;;;;;5.43;3.38;;;26.00;49.00;;;;;;20993715;28;20062;-59
